sensor_id;sensor_type;location;lat;lon;timestamp;temperature;humidity
28773;DHT22;15925;51.222;5.678;2023-02-02T00:01:21;8.10;99.90
28773;DHT22;15925;51.222;5.678;2023-02-02T00:03:47;8.10;99.90
28773;DHT22;15925;51.222;5.678;2023-02-02T00:06:24;8.10;99.90
28773;DHT22;15925;51.222;5.678;2023-02-02T00:08:50;8.10;99.90
28773;DHT22;15925;51.222;5.678;2023-02-02T00:11:17;8.10;99.90
28773;DHT22;15925;51.222;5.678;2023-02-02T00:13:43;8.10;99.90
28773;DHT22;15925;51.222;5.678;2023-02-02T00:18:57;8.10;99.90
28773;DHT22;15925;51.222;5.678;2023-02-02T00:21:23;8.10;99.90
28773;DHT22;15925;51.222;5.678;2023-02-02T00:23:49;8.10;99.90
28773;DHT22;15925;51.222;5.678;2023-02-02T00:26:15;8.10;99.90
28773;DHT22;15925;51.222;5.678;2023-02-02T00:28:40;8.20;99.90
28773;DHT22;15925;51.222;5.678;2023-02-02T00:31:06;8.20;99.90
28773;DHT22;15925;51.222;5.678;2023-02-02T00:33:32;8.20;99.90
28773;DHT22;15925;51.222;5.678;2023-02-02T00:35:58;8.20;99.90
28773;DHT22;15925;51.222;5.678;2023-02-02T00:38:23;8.20;99.90
28773;DHT22;15925;51.222;5.678;2023-02-02T00:40:49;8.20;99.90
28773;DHT22;15925;51.222;5.678;2023-02-02T00:43:15;8.20;99.90
28773;DHT22;15925;51.222;5.678;2023-02-02T00:45:40;8.20;99.90
28773;DHT22;15925;51.222;5.678;2023-02-02T00:48:06;8.20;99.90
28773;DHT22;15925;51.222;5.678;2023-02-02T00:50:32;8.20;99.90
28773;DHT22;15925;51.222;5.678;2023-02-02T00:52:57;8.20;99.90
28773;DHT22;15925;51.222;5.678;2023-02-02T00:55:24;8.20;99.90
28773;DHT22;15925;51.222;5.678;2023-02-02T00:57:50;8.20;99.90
28773;DHT22;15925;51.222;5.678;2023-02-02T01:00:16;8.20;99.90
28773;DHT22;15925;51.222;5.678;2023-02-02T01:02:42;8.20;99.90
28773;DHT22;15925;51.222;5.678;2023-02-02T01:05:09;8.20;99.90
28773;DHT22;15925;51.222;5.678;2023-02-02T01:07:36;8.20;99.90
28773;DHT22;15925;51.222;5.678;2023-02-02T01:10:02;8.20;99.90
28773;DHT22;15925;51.222;5.678;2023-02-02T01:12:27;8.20;99.90
28773;DHT22;15925;51.222;5.678;2023-02-02T01:14:53;8.20;99.90
28773;DHT22;15925;51.222;5.678;2023-02-02T01:17:20;8.20;99.90
28773;DHT22;15925;51.222;5.678;2023-02-02T01:19:45;8.20;99.90
28773;DHT22;15925;51.222;5.678;2023-02-02T01:22:11;8.20;99.90
28773;DHT22;15925;51.222;5.678;2023-02-02T01:24:37;8.20;99.90
28773;DHT22;15925;51.222;5.678;2023-02-02T01:27:03;8.20;99.90
28773;DHT22;15925;51.222;5.678;2023-02-02T01:29:29;8.20;99.90
28773;DHT22;15925;51.222;5.678;2023-02-02T01:31:56;8.20;99.90
28773;DHT22;15925;51.222;5.678;2023-02-02T01:34:22;8.20;99.90
28773;DHT22;15925;51.222;5.678;2023-02-02T01:36:47;8.20;99.90
28773;DHT22;15925;51.222;5.678;2023-02-02T01:39:13;8.20;99.90
28773;DHT22;15925;51.222;5.678;2023-02-02T01:41:39;8.20;99.90
28773;DHT22;15925;51.222;5.678;2023-02-02T01:44:49;8.20;99.90
28773;DHT22;15925;51.222;5.678;2023-02-02T01:46:51;8.20;99.90
28773;DHT22;15925;51.222;5.678;2023-02-02T01:49:18;8.20;99.90
28773;DHT22;15925;51.222;5.678;2023-02-02T01:51:49;8.20;99.90
28773;DHT22;15925;51.222;5.678;2023-02-02T01:54:19;8.20;99.90
28773;DHT22;15925;51.222;5.678;2023-02-02T01:56:48;8.20;99.90
28773;DHT22;15925;51.222;5.678;2023-02-02T01:59:15;8.20;99.90
28773;DHT22;15925;51.222;5.678;2023-02-02T02:01:43;8.20;99.90
28773;DHT22;15925;51.222;5.678;2023-02-02T02:04:09;8.20;99.90
28773;DHT22;15925;51.222;5.678;2023-02-02T02:06:35;8.30;99.90
28773;DHT22;15925;51.222;5.678;2023-02-02T02:09:02;8.30;99.90
28773;DHT22;15925;51.222;5.678;2023-02-02T02:11:28;8.30;99.90
28773;DHT22;15925;51.222;5.678;2023-02-02T02:13:55;8.30;99.90
28773;DHT22;15925;51.222;5.678;2023-02-02T02:33:34;8.40;99.90
28773;DHT22;15925;51.222;5.678;2023-02-02T02:38:34;8.40;99.90
28773;DHT22;15925;51.222;5.678;2023-02-02T02:41:01;8.40;99.90
28773;DHT22;15925;51.222;5.678;2023-02-02T02:43:31;8.40;99.90
28773;DHT22;15925;51.222;5.678;2023-02-02T02:45:58;8.50;99.90
28773;DHT22;15925;51.222;5.678;2023-02-02T02:48:23;8.50;99.90
28773;DHT22;15925;51.222;5.678;2023-02-02T02:50:49;8.50;99.90
28773;DHT22;15925;51.222;5.678;2023-02-02T02:53:19;8.50;99.90
28773;DHT22;15925;51.222;5.678;2023-02-02T03:09:22;8.50;99.90
28773;DHT22;15925;51.222;5.678;2023-02-02T03:11:50;8.50;99.90
28773;DHT22;15925;51.222;5.678;2023-02-02T03:14:15;8.50;99.90
28773;DHT22;15925;51.222;5.678;2023-02-02T03:16:41;8.50;99.90
28773;DHT22;15925;51.222;5.678;2023-02-02T03:19:07;8.50;99.90
28773;DHT22;15925;51.222;5.678;2023-02-02T03:21:33;8.50;99.90
28773;DHT22;15925;51.222;5.678;2023-02-02T03:23:59;8.40;99.90
28773;DHT22;15925;51.222;5.678;2023-02-02T03:26:26;8.50;99.90
28773;DHT22;15925;51.222;5.678;2023-02-02T03:28:52;8.40;99.90
28773;DHT22;15925;51.222;5.678;2023-02-02T03:31:19;8.40;99.90
28773;DHT22;15925;51.222;5.678;2023-02-02T03:33:45;8.50;99.90
28773;DHT22;15925;51.222;5.678;2023-02-02T03:36:11;8.50;99.90
28773;DHT22;15925;51.222;5.678;2023-02-02T03:38:36;8.50;99.90
28773;DHT22;15925;51.222;5.678;2023-02-02T03:41:03;8.50;99.90
28773;DHT22;15925;51.222;5.678;2023-02-02T03:43:29;8.50;99.90
28773;DHT22;15925;51.222;5.678;2023-02-02T03:45:58;8.40;99.90
28773;DHT22;15925;51.222;5.678;2023-02-02T03:48:24;8.50;99.90
28773;DHT22;15925;51.222;5.678;2023-02-02T03:50:50;8.50;99.90
28773;DHT22;15925;51.222;5.678;2023-02-02T03:53:16;8.50;99.90
28773;DHT22;15925;51.222;5.678;2023-02-02T03:55:41;8.40;99.90
28773;DHT22;15925;51.222;5.678;2023-02-02T03:58:07;8.40;99.90
28773;DHT22;15925;51.222;5.678;2023-02-02T04:00:33;8.40;99.90
28773;DHT22;15925;51.222;5.678;2023-02-02T04:02:58;8.30;99.90
28773;DHT22;15925;51.222;5.678;2023-02-02T04:05:24;8.30;99.90
28773;DHT22;15925;51.222;5.678;2023-02-02T04:07:50;8.30;99.90
28773;DHT22;15925;51.222;5.678;2023-02-02T04:10:16;8.30;99.90
28773;DHT22;15925;51.222;5.678;2023-02-02T04:12:42;8.20;99.90
28773;DHT22;15925;51.222;5.678;2023-02-02T04:15:07;8.30;99.90
28773;DHT22;15925;51.222;5.678;2023-02-02T04:17:33;8.20;99.90
28773;DHT22;15925;51.222;5.678;2023-02-02T04:20:00;8.20;99.90
28773;DHT22;15925;51.222;5.678;2023-02-02T04:22:25;8.20;99.90
28773;DHT22;15925;51.222;5.678;2023-02-02T04:24:51;8.20;99.90
28773;DHT22;15925;51.222;5.678;2023-02-02T04:27:17;8.20;99.90
28773;DHT22;15925;51.222;5.678;2023-02-02T04:29:43;8.20;99.90
28773;DHT22;15925;51.222;5.678;2023-02-02T04:32:08;8.20;99.90
28773;DHT22;15925;51.222;5.678;2023-02-02T04:34:34;8.20;99.90
28773;DHT22;15925;51.222;5.678;2023-02-02T04:37:00;8.20;99.90
28773;DHT22;15925;51.222;5.678;2023-02-02T04:39:25;8.20;99.90
28773;DHT22;15925;51.222;5.678;2023-02-02T04:41:51;8.10;99.90
28773;DHT22;15925;51.222;5.678;2023-02-02T04:44:17;8.20;99.90
28773;DHT22;15925;51.222;5.678;2023-02-02T04:46:43;8.10;99.90
28773;DHT22;15925;51.222;5.678;2023-02-02T04:49:09;8.10;99.90
28773;DHT22;15925;51.222;5.678;2023-02-02T04:51:36;8.10;99.90
28773;DHT22;15925;51.222;5.678;2023-02-02T04:54:02;8.10;99.90
28773;DHT22;15925;51.222;5.678;2023-02-02T04:56:27;8.10;99.90
28773;DHT22;15925;51.222;5.678;2023-02-02T04:58:53;8.10;99.90
28773;DHT22;15925;51.222;5.678;2023-02-02T05:01:20;8.10;99.90
28773;DHT22;15925;51.222;5.678;2023-02-02T05:03:47;8.10;99.90
28773;DHT22;15925;51.222;5.678;2023-02-02T05:06:13;8.10;99.90
28773;DHT22;15925;51.222;5.678;2023-02-02T05:08:39;8.10;99.90
28773;DHT22;15925;51.222;5.678;2023-02-02T05:11:08;8.10;99.90
28773;DHT22;15925;51.222;5.678;2023-02-02T05:13:34;8.00;99.90
28773;DHT22;15925;51.222;5.678;2023-02-02T05:16:00;8.10;99.90
28773;DHT22;15925;51.222;5.678;2023-02-02T05:18:25;8.10;99.90
28773;DHT22;15925;51.222;5.678;2023-02-02T05:20:51;8.10;99.90
28773;DHT22;15925;51.222;5.678;2023-02-02T05:23:17;8.10;99.90
28773;DHT22;15925;51.222;5.678;2023-02-02T05:25:43;8.10;99.90
28773;DHT22;15925;51.222;5.678;2023-02-02T05:28:09;8.00;99.90
28773;DHT22;15925;51.222;5.678;2023-02-02T05:30:37;8.00;99.90
28773;DHT22;15925;51.222;5.678;2023-02-02T05:33:03;8.10;99.90
28773;DHT22;15925;51.222;5.678;2023-02-02T05:35:28;8.00;99.90
28773;DHT22;15925;51.222;5.678;2023-02-02T05:37:54;8.00;99.90
28773;DHT22;15925;51.222;5.678;2023-02-02T05:40:20;8.10;99.90
28773;DHT22;15925;51.222;5.678;2023-02-02T05:42:48;8.00;99.90
28773;DHT22;15925;51.222;5.678;2023-02-02T05:45:14;8.00;99.90
28773;DHT22;15925;51.222;5.678;2023-02-02T05:47:40;8.00;99.90
28773;DHT22;15925;51.222;5.678;2023-02-02T05:50:05;8.00;99.90
28773;DHT22;15925;51.222;5.678;2023-02-02T05:52:31;8.00;99.90
28773;DHT22;15925;51.222;5.678;2023-02-02T05:54:58;8.00;99.90
28773;DHT22;15925;51.222;5.678;2023-02-02T05:57:24;8.00;99.90
28773;DHT22;15925;51.222;5.678;2023-02-02T05:59:52;8.10;99.90
28773;DHT22;15925;51.222;5.678;2023-02-02T06:02:18;8.10;99.90
28773;DHT22;15925;51.222;5.678;2023-02-02T06:04:43;8.10;99.90
28773;DHT22;15925;51.222;5.678;2023-02-02T06:07:09;8.00;99.90
28773;DHT22;15925;51.222;5.678;2023-02-02T06:09:35;8.00;99.90
28773;DHT22;15925;51.222;5.678;2023-02-02T06:12:00;8.00;99.90
28773;DHT22;15925;51.222;5.678;2023-02-02T06:14:26;8.00;99.90
28773;DHT22;15925;51.222;5.678;2023-02-02T06:16:52;8.00;99.90
28773;DHT22;15925;51.222;5.678;2023-02-02T06:19:17;8.00;99.90
28773;DHT22;15925;51.222;5.678;2023-02-02T06:21:43;7.90;99.90
28773;DHT22;15925;51.222;5.678;2023-02-02T06:24:09;7.90;99.90
28773;DHT22;15925;51.222;5.678;2023-02-02T06:26:35;7.90;99.90
28773;DHT22;15925;51.222;5.678;2023-02-02T06:29:00;7.80;99.90
28773;DHT22;15925;51.222;5.678;2023-02-02T06:31:27;7.80;99.90
28773;DHT22;15925;51.222;5.678;2023-02-02T06:33:54;7.80;99.90
28773;DHT22;15925;51.222;5.678;2023-02-02T06:36:20;7.80;99.90
28773;DHT22;15925;51.222;5.678;2023-02-02T06:38:49;7.80;99.90
28773;DHT22;15925;51.222;5.678;2023-02-02T06:41:15;7.80;99.90
28773;DHT22;15925;51.222;5.678;2023-02-02T06:43:41;7.80;99.90
28773;DHT22;15925;51.222;5.678;2023-02-02T06:46:07;7.70;99.90
28773;DHT22;15925;51.222;5.678;2023-02-02T06:48:33;7.70;99.90
28773;DHT22;15925;51.222;5.678;2023-02-02T06:50:58;7.70;99.90
28773;DHT22;15925;51.222;5.678;2023-02-02T06:53:24;7.70;99.90
28773;DHT22;15925;51.222;5.678;2023-02-02T06:55:51;7.70;99.90
28773;DHT22;15925;51.222;5.678;2023-02-02T06:58:17;7.70;99.90
28773;DHT22;15925;51.222;5.678;2023-02-02T07:00:42;7.70;99.90
28773;DHT22;15925;51.222;5.678;2023-02-02T07:03:08;7.70;99.90
28773;DHT22;15925;51.222;5.678;2023-02-02T07:05:34;7.70;99.90
28773;DHT22;15925;51.222;5.678;2023-02-02T07:07:59;7.80;99.90
28773;DHT22;15925;51.222;5.678;2023-02-02T07:10:25;7.80;99.90
28773;DHT22;15925;51.222;5.678;2023-02-02T07:12:52;7.70;99.90
28773;DHT22;15925;51.222;5.678;2023-02-02T07:15:18;7.70;99.90
28773;DHT22;15925;51.222;5.678;2023-02-02T07:17:44;7.70;99.90
28773;DHT22;15925;51.222;5.678;2023-02-02T07:20:09;7.70;99.90
28773;DHT22;15925;51.222;5.678;2023-02-02T07:22:39;7.70;99.90
28773;DHT22;15925;51.222;5.678;2023-02-02T07:25:05;7.80;99.90
28773;DHT22;15925;51.222;5.678;2023-02-02T07:27:31;7.70;99.90
28773;DHT22;15925;51.222;5.678;2023-02-02T07:29:57;7.70;99.90
28773;DHT22;15925;51.222;5.678;2023-02-02T07:32:23;7.70;99.90
28773;DHT22;15925;51.222;5.678;2023-02-02T07:34:48;7.70;99.90
28773;DHT22;15925;51.222;5.678;2023-02-02T07:37:14;7.70;99.90
28773;DHT22;15925;51.222;5.678;2023-02-02T07:39:40;7.70;99.90
28773;DHT22;15925;51.222;5.678;2023-02-02T07:42:11;7.70;99.90
28773;DHT22;15925;51.222;5.678;2023-02-02T07:44:38;7.80;99.90
28773;DHT22;15925;51.222;5.678;2023-02-02T07:47:04;7.80;99.90
28773;DHT22;15925;51.222;5.678;2023-02-02T07:49:30;7.80;99.90
28773;DHT22;15925;51.222;5.678;2023-02-02T07:51:56;7.80;99.90
28773;DHT22;15925;51.222;5.678;2023-02-02T07:54:22;7.80;99.90
28773;DHT22;15925;51.222;5.678;2023-02-02T07:56:47;7.80;99.90
28773;DHT22;15925;51.222;5.678;2023-02-02T07:59:13;7.80;99.90
28773;DHT22;15925;51.222;5.678;2023-02-02T08:01:39;7.80;99.90
28773;DHT22;15925;51.222;5.678;2023-02-02T08:04:04;7.80;99.90
28773;DHT22;15925;51.222;5.678;2023-02-02T08:06:37;7.90;99.90
28773;DHT22;15925;51.222;5.678;2023-02-02T08:09:04;7.90;99.90
28773;DHT22;15925;51.222;5.678;2023-02-02T08:11:32;7.90;99.90
28773;DHT22;15925;51.222;5.678;2023-02-02T08:13:58;7.90;99.90
28773;DHT22;15925;51.222;5.678;2023-02-02T08:16:25;7.90;99.90
28773;DHT22;15925;51.222;5.678;2023-02-02T08:18:51;7.90;99.90
28773;DHT22;15925;51.222;5.678;2023-02-02T08:21:16;7.90;99.90
28773;DHT22;15925;51.222;5.678;2023-02-02T08:23:42;8.00;99.90
28773;DHT22;15925;51.222;5.678;2023-02-02T08:26:13;8.00;99.90
28773;DHT22;15925;51.222;5.678;2023-02-02T08:28:39;8.00;99.90
28773;DHT22;15925;51.222;5.678;2023-02-02T08:33:37;8.00;99.90
28773;DHT22;15925;51.222;5.678;2023-02-02T08:36:03;7.90;99.90
28773;DHT22;15925;51.222;5.678;2023-02-02T08:38:29;8.00;99.90
28773;DHT22;15925;51.222;5.678;2023-02-02T08:40:55;8.00;99.90
28773;DHT22;15925;51.222;5.678;2023-02-02T08:43:28;8.00;99.90
28773;DHT22;15925;51.222;5.678;2023-02-02T08:45:53;8.00;99.90
28773;DHT22;15925;51.222;5.678;2023-02-02T08:48:19;8.00;99.90
28773;DHT22;15925;51.222;5.678;2023-02-02T08:50:50;8.00;99.90
28773;DHT22;15925;51.222;5.678;2023-02-02T08:53:16;8.00;99.90
28773;DHT22;15925;51.222;5.678;2023-02-02T08:55:42;8.10;99.90
28773;DHT22;15925;51.222;5.678;2023-02-02T08:58:07;8.10;99.90
28773;DHT22;15925;51.222;5.678;2023-02-02T09:00:34;8.00;99.90
28773;DHT22;15925;51.222;5.678;2023-02-02T09:03:00;8.00;99.90
28773;DHT22;15925;51.222;5.678;2023-02-02T09:05:25;8.10;99.90
28773;DHT22;15925;51.222;5.678;2023-02-02T09:07:51;8.00;99.90
28773;DHT22;15925;51.222;5.678;2023-02-02T09:10:17;8.10;99.90
28773;DHT22;15925;51.222;5.678;2023-02-02T09:12:42;8.00;99.90
28773;DHT22;15925;51.222;5.678;2023-02-02T09:15:08;8.10;99.90
28773;DHT22;15925;51.222;5.678;2023-02-02T09:17:34;8.10;99.90
28773;DHT22;15925;51.222;5.678;2023-02-02T09:20:00;8.10;99.90
28773;DHT22;15925;51.222;5.678;2023-02-02T09:22:25;8.10;99.90
28773;DHT22;15925;51.222;5.678;2023-02-02T09:24:51;8.10;99.90
28773;DHT22;15925;51.222;5.678;2023-02-02T09:27:17;8.10;99.90
28773;DHT22;15925;51.222;5.678;2023-02-02T09:29:42;8.10;99.90
28773;DHT22;15925;51.222;5.678;2023-02-02T09:32:08;8.20;99.90
28773;DHT22;15925;51.222;5.678;2023-02-02T09:34:34;8.20;99.90
28773;DHT22;15925;51.222;5.678;2023-02-02T09:37:00;8.20;99.90
28773;DHT22;15925;51.222;5.678;2023-02-02T09:39:25;8.20;99.90
28773;DHT22;15925;51.222;5.678;2023-02-02T09:47:11;8.30;99.90
28773;DHT22;15925;51.222;5.678;2023-02-02T09:49:59;8.30;99.90
28773;DHT22;15925;51.222;5.678;2023-02-02T09:52:45;8.30;99.90
28773;DHT22;15925;51.222;5.678;2023-02-02T09:55:16;8.40;99.90
28773;DHT22;15925;51.222;5.678;2023-02-02T10:00:47;8.40;99.90
28773;DHT22;15925;51.222;5.678;2023-02-02T10:03:17;8.40;99.90
28773;DHT22;15925;51.222;5.678;2023-02-02T10:05:47;8.40;99.90
28773;DHT22;15925;51.222;5.678;2023-02-02T10:08:20;8.50;99.90
28773;DHT22;15925;51.222;5.678;2023-02-02T10:10:47;8.50;99.90
28773;DHT22;15925;51.222;5.678;2023-02-02T10:13:19;8.50;99.90
28773;DHT22;15925;51.222;5.678;2023-02-02T10:16:03;8.50;99.90
28773;DHT22;15925;51.222;5.678;2023-02-02T10:20:57;8.50;99.90
28773;DHT22;15925;51.222;5.678;2023-02-02T10:25:56;8.50;99.90
28773;DHT22;15925;51.222;5.678;2023-02-02T10:28:28;8.50;99.90
28773;DHT22;15925;51.222;5.678;2023-02-02T10:30:59;8.60;99.90
28773;DHT22;15925;51.222;5.678;2023-02-02T10:33:32;8.50;99.90
28773;DHT22;15925;51.222;5.678;2023-02-02T10:36:14;8.60;99.90
28773;DHT22;15925;51.222;5.678;2023-02-02T10:41:36;8.60;99.90
28773;DHT22;15925;51.222;5.678;2023-02-02T10:44:12;8.60;99.90
28773;DHT22;15925;51.222;5.678;2023-02-02T10:46:43;8.60;99.90
28773;DHT22;15925;51.222;5.678;2023-02-02T10:49:53;8.60;99.90
28773;DHT22;15925;51.222;5.678;2023-02-02T10:57:13;8.70;99.90
28773;DHT22;15925;51.222;5.678;2023-02-02T10:59:43;8.70;99.90
28773;DHT22;15925;51.222;5.678;2023-02-02T11:02:12;8.70;99.90
28773;DHT22;15925;51.222;5.678;2023-02-02T11:04:38;8.80;99.90
28773;DHT22;15925;51.222;5.678;2023-02-02T11:07:22;8.80;99.90
28773;DHT22;15925;51.222;5.678;2023-02-02T11:09:48;8.80;99.90
28773;DHT22;15925;51.222;5.678;2023-02-02T11:12:22;8.80;99.90
28773;DHT22;15925;51.222;5.678;2023-02-02T11:14:51;8.90;99.90
28773;DHT22;15925;51.222;5.678;2023-02-02T11:17:20;8.90;99.90
28773;DHT22;15925;51.222;5.678;2023-02-02T11:19:46;8.80;99.90
28773;DHT22;15925;51.222;5.678;2023-02-02T11:24:49;8.80;99.90
28773;DHT22;15925;51.222;5.678;2023-02-02T11:27:28;8.90;99.90
28773;DHT22;15925;51.222;5.678;2023-02-02T11:29:56;8.90;99.90
28773;DHT22;15925;51.222;5.678;2023-02-02T11:32:28;8.90;99.90
28773;DHT22;15925;51.222;5.678;2023-02-02T11:37:30;8.90;99.90
28773;DHT22;15925;51.222;5.678;2023-02-02T11:40:17;8.90;99.90
28773;DHT22;15925;51.222;5.678;2023-02-02T11:42:43;9.00;99.90
28773;DHT22;15925;51.222;5.678;2023-02-02T11:45:13;9.00;99.90
28773;DHT22;15925;51.222;5.678;2023-02-02T11:47:39;9.00;99.90
28773;DHT22;15925;51.222;5.678;2023-02-02T11:50:06;9.00;99.90
28773;DHT22;15925;51.222;5.678;2023-02-02T11:52:40;9.00;99.90
28773;DHT22;15925;51.222;5.678;2023-02-02T11:55:14;9.00;99.90
28773;DHT22;15925;51.222;5.678;2023-02-02T11:57:42;9.10;99.90
28773;DHT22;15925;51.222;5.678;2023-02-02T12:00:27;9.10;99.90
28773;DHT22;15925;51.222;5.678;2023-02-02T12:02:53;9.10;99.90
28773;DHT22;15925;51.222;5.678;2023-02-02T12:07:44;9.10;99.90
28773;DHT22;15925;51.222;5.678;2023-02-02T12:10:23;9.10;99.90
28773;DHT22;15925;51.222;5.678;2023-02-02T12:12:59;9.10;99.90
28773;DHT22;15925;51.222;5.678;2023-02-02T12:18:12;9.10;99.90
28773;DHT22;15925;51.222;5.678;2023-02-02T12:26:00;9.20;99.90
28773;DHT22;15925;51.222;5.678;2023-02-02T12:28:32;9.20;99.90
28773;DHT22;15925;51.222;5.678;2023-02-02T12:31:09;9.30;99.90
28773;DHT22;15925;51.222;5.678;2023-02-02T12:33:45;9.30;99.90
28773;DHT22;15925;51.222;5.678;2023-02-02T12:43:48;9.30;99.90
28773;DHT22;15925;51.222;5.678;2023-02-02T12:48:59;9.30;99.90
28773;DHT22;15925;51.222;5.678;2023-02-02T12:56:27;9.30;99.90
28773;DHT22;15925;51.222;5.678;2023-02-02T12:59:03;9.30;99.90
28773;DHT22;15925;51.222;5.678;2023-02-02T13:09:15;9.30;99.90
28773;DHT22;15925;51.222;5.678;2023-02-02T13:11:43;9.30;99.90
28773;DHT22;15925;51.222;5.678;2023-02-02T13:14:15;9.30;99.90
28773;DHT22;15925;51.222;5.678;2023-02-02T13:16:49;9.30;99.90
28773;DHT22;15925;51.222;5.678;2023-02-02T13:19:33;9.30;99.90
28773;DHT22;15925;51.222;5.678;2023-02-02T13:22:00;9.30;99.90
28773;DHT22;15925;51.222;5.678;2023-02-02T13:24:28;9.30;99.90
28773;DHT22;15925;51.222;5.678;2023-02-02T13:26:56;9.30;99.90
28773;DHT22;15925;51.222;5.678;2023-02-02T13:29:29;9.30;99.90
28773;DHT22;15925;51.222;5.678;2023-02-02T13:32:05;9.40;99.90
28773;DHT22;15925;51.222;5.678;2023-02-02T13:34:49;9.40;99.90
28773;DHT22;15925;51.222;5.678;2023-02-02T13:39:42;9.30;99.90
28773;DHT22;15925;51.222;5.678;2023-02-02T13:42:13;9.30;99.90
28773;DHT22;15925;51.222;5.678;2023-02-02T13:44:45;9.30;99.90
28773;DHT22;15925;51.222;5.678;2023-02-02T13:47:22;9.40;99.90
28773;DHT22;15925;51.222;5.678;2023-02-02T13:49:51;9.30;99.90
28773;DHT22;15925;51.222;5.678;2023-02-02T13:52:33;9.20;99.90
28773;DHT22;15925;51.222;5.678;2023-02-02T13:55:24;9.30;99.90
28773;DHT22;15925;51.222;5.678;2023-02-02T14:00:39;9.20;99.90
28773;DHT22;15925;51.222;5.678;2023-02-02T14:03:17;9.20;99.90
28773;DHT22;15925;51.222;5.678;2023-02-02T14:06:00;9.20;99.90
28773;DHT22;15925;51.222;5.678;2023-02-02T14:08:26;9.20;99.90
28773;DHT22;15925;51.222;5.678;2023-02-02T14:13:19;9.20;99.90
28773;DHT22;15925;51.222;5.678;2023-02-02T14:16:06;9.20;99.90
28773;DHT22;15925;51.222;5.678;2023-02-02T14:23:55;9.20;99.90
28773;DHT22;15925;51.222;5.678;2023-02-02T14:31:54;9.30;99.90
28773;DHT22;15925;51.222;5.678;2023-02-02T14:34:28;9.40;99.90
28773;DHT22;15925;51.222;5.678;2023-02-02T14:39:36;9.30;99.90
28773;DHT22;15925;51.222;5.678;2023-02-02T14:47:46;9.40;99.90
28773;DHT22;15925;51.222;5.678;2023-02-02T14:50:14;9.40;99.90
28773;DHT22;15925;51.222;5.678;2023-02-02T14:52:42;9.40;99.90
28773;DHT22;15925;51.222;5.678;2023-02-02T14:55:20;9.40;99.90
28773;DHT22;15925;51.222;5.678;2023-02-02T14:57:53;9.40;99.90
28773;DHT22;15925;51.222;5.678;2023-02-02T15:00:20;9.40;99.90
28773;DHT22;15925;51.222;5.678;2023-02-02T15:02:47;9.40;99.90
28773;DHT22;15925;51.222;5.678;2023-02-02T15:07:53;9.40;99.90
28773;DHT22;15925;51.222;5.678;2023-02-02T15:10:55;9.40;99.90
28773;DHT22;15925;51.222;5.678;2023-02-02T15:13:05;9.30;99.90
28773;DHT22;15925;51.222;5.678;2023-02-02T15:15:31;9.30;99.90
28773;DHT22;15925;51.222;5.678;2023-02-02T15:20:31;9.30;99.90
28773;DHT22;15925;51.222;5.678;2023-02-02T15:28:17;9.30;99.90
28773;DHT22;15925;51.222;5.678;2023-02-02T15:30:47;9.20;99.90
28773;DHT22;15925;51.222;5.678;2023-02-02T15:33:23;9.20;99.90
28773;DHT22;15925;51.222;5.678;2023-02-02T15:35:51;9.20;99.90
28773;DHT22;15925;51.222;5.678;2023-02-02T15:38:18;9.20;99.90
28773;DHT22;15925;51.222;5.678;2023-02-02T15:40:44;9.20;99.90
28773;DHT22;15925;51.222;5.678;2023-02-02T15:43:10;9.20;99.90
28773;DHT22;15925;51.222;5.678;2023-02-02T15:48:17;9.20;99.90
28773;DHT22;15925;51.222;5.678;2023-02-02T15:50:43;9.20;99.90
28773;DHT22;15925;51.222;5.678;2023-02-02T15:53:18;9.10;99.90
28773;DHT22;15925;51.222;5.678;2023-02-02T15:55:45;9.10;99.90
28773;DHT22;15925;51.222;5.678;2023-02-02T16:01:05;9.10;99.90
28773;DHT22;15925;51.222;5.678;2023-02-02T16:03:40;9.00;99.90
28773;DHT22;15925;51.222;5.678;2023-02-02T16:06:07;9.00;99.90
28773;DHT22;15925;51.222;5.678;2023-02-02T16:08:34;8.90;99.90
28773;DHT22;15925;51.222;5.678;2023-02-02T16:11:22;9.00;99.90
28773;DHT22;15925;51.222;5.678;2023-02-02T16:16:27;8.90;99.90
28773;DHT22;15925;51.222;5.678;2023-02-02T16:19:03;8.80;99.90
28773;DHT22;15925;51.222;5.678;2023-02-02T16:21:29;8.80;99.90
28773;DHT22;15925;51.222;5.678;2023-02-02T16:23:56;8.80;99.90
28773;DHT22;15925;51.222;5.678;2023-02-02T16:26:23;8.80;99.90
28773;DHT22;15925;51.222;5.678;2023-02-02T16:28:49;8.80;99.90
28773;DHT22;15925;51.222;5.678;2023-02-02T16:31:15;8.80;99.90
28773;DHT22;15925;51.222;5.678;2023-02-02T16:33:42;8.80;99.90
28773;DHT22;15925;51.222;5.678;2023-02-02T16:36:21;8.80;99.90
28773;DHT22;15925;51.222;5.678;2023-02-02T16:38:48;8.80;99.90
28773;DHT22;15925;51.222;5.678;2023-02-02T16:43:50;8.80;99.90
28773;DHT22;15925;51.222;5.678;2023-02-02T16:46:20;8.80;99.90
28773;DHT22;15925;51.222;5.678;2023-02-02T16:49:02;8.80;99.90
28773;DHT22;15925;51.222;5.678;2023-02-02T16:51:30;8.80;99.90
28773;DHT22;15925;51.222;5.678;2023-02-02T16:54:01;8.90;99.90
28773;DHT22;15925;51.222;5.678;2023-02-02T16:59:03;8.90;99.90
28773;DHT22;15925;51.222;5.678;2023-02-02T17:01:39;8.90;99.90
28773;DHT22;15925;51.222;5.678;2023-02-02T17:04:07;8.90;99.90
28773;DHT22;15925;51.222;5.678;2023-02-02T17:06:40;8.90;99.90
28773;DHT22;15925;51.222;5.678;2023-02-02T17:09:18;8.80;99.90
28773;DHT22;15925;51.222;5.678;2023-02-02T17:11:59;8.90;99.90
28773;DHT22;15925;51.222;5.678;2023-02-02T17:14:27;8.80;99.90
28773;DHT22;15925;51.222;5.678;2023-02-02T17:16:53;8.90;99.90
28773;DHT22;15925;51.222;5.678;2023-02-02T17:19:19;8.90;99.90
28773;DHT22;15925;51.222;5.678;2023-02-02T17:21:45;8.90;99.90
28773;DHT22;15925;51.222;5.678;2023-02-02T17:24:14;8.90;99.90
28773;DHT22;15925;51.222;5.678;2023-02-02T17:26:40;8.90;99.90
28773;DHT22;15925;51.222;5.678;2023-02-02T17:29:07;8.90;99.90
28773;DHT22;15925;51.222;5.678;2023-02-02T17:31:35;8.90;99.90
28773;DHT22;15925;51.222;5.678;2023-02-02T17:34:00;8.90;99.90
28773;DHT22;15925;51.222;5.678;2023-02-02T17:36:26;8.90;99.90
28773;DHT22;15925;51.222;5.678;2023-02-02T17:38:52;8.90;99.90
28773;DHT22;15925;51.222;5.678;2023-02-02T17:41:18;8.90;99.90
28773;DHT22;15925;51.222;5.678;2023-02-02T17:43:43;8.90;99.90
28773;DHT22;15925;51.222;5.678;2023-02-02T17:46:10;8.90;99.90
28773;DHT22;15925;51.222;5.678;2023-02-02T17:48:37;8.90;99.90
28773;DHT22;15925;51.222;5.678;2023-02-02T17:51:07;8.90;99.90
28773;DHT22;15925;51.222;5.678;2023-02-02T17:53:37;8.90;99.90
28773;DHT22;15925;51.222;5.678;2023-02-02T17:56:03;8.90;99.90
28773;DHT22;15925;51.222;5.678;2023-02-02T17:58:29;8.90;99.90
28773;DHT22;15925;51.222;5.678;2023-02-02T18:00:54;8.90;99.90
28773;DHT22;15925;51.222;5.678;2023-02-02T18:03:27;8.90;99.90
28773;DHT22;15925;51.222;5.678;2023-02-02T18:05:54;8.90;99.90
28773;DHT22;15925;51.222;5.678;2023-02-02T18:08:22;8.90;99.90
28773;DHT22;15925;51.222;5.678;2023-02-02T18:10:48;8.90;99.90
28773;DHT22;15925;51.222;5.678;2023-02-02T18:13:14;8.90;99.90
28773;DHT22;15925;51.222;5.678;2023-02-02T18:15:40;8.90;99.90
28773;DHT22;15925;51.222;5.678;2023-02-02T18:18:06;8.90;99.90
28773;DHT22;15925;51.222;5.678;2023-02-02T18:20:32;8.90;99.90